createdAt,value
2023-01-08T09:23:13.813Z,102098.94
2023-01-08T09:25:40.836Z,102099.06
2023-01-08T09:28:09.162Z,102100.33
2023-01-08T09:30:36.154Z,102098.18
2023-01-08T09:33:03.540Z,102098.79
2023-01-08T09:35:31.528Z,102096.48
2023-01-08T09:37:58.513Z,102093.29
2023-01-08T09:40:35.601Z,102090.71
2023-01-08T09:43:03.473Z,102087.64
2023-01-08T09:45:31.750Z,102083.90
2023-01-08T09:47:59.780Z,102087.91
2023-01-08T09:50:28.011Z,102088.29
2023-01-08T09:52:55.113Z,102092.77
2023-01-08T09:55:22.107Z,102088.20
2023-01-08T09:57:49.226Z,102084.65
2023-01-08T10:00:28.265Z,102083.00
2023-01-08T10:02:55.505Z,102081.08
2023-01-08T10:05:22.593Z,102078.52
2023-01-08T10:07:49.562Z,102071.39
2023-01-08T10:10:27.339Z,102069.52
2023-01-08T10:12:54.364Z,102067.60
2023-01-08T10:15:21.848Z,102067.79
2023-01-08T10:17:54.394Z,102067.29
2023-01-08T10:20:23.092Z,102061.65
2023-01-08T10:22:50.432Z,102065.42
2023-01-08T10:25:22.495Z,102064.06
2023-01-08T10:27:51.436Z,102066.10
2023-01-08T10:30:22.910Z,102063.80
2023-01-08T10:32:54.941Z,102062.73
2023-01-08T10:35:25.258Z,102061.85
2023-01-08T10:37:52.284Z,102063.89
2023-01-08T10:40:25.577Z,102062.89
2023-01-08T10:42:52.653Z,102061.02
2023-01-08T10:45:26.728Z,102054.51
2023-01-08T10:47:57.195Z,102048.04
2023-01-08T10:50:29.614Z,102054.65
2023-01-08T10:53:01.163Z,102052.17
2023-01-08T10:55:39.780Z,102050.91
2023-01-08T10:58:09.919Z,102051.73
2023-01-08T11:00:37.439Z,102048.95
2023-01-08T11:03:06.691Z,102043.95
2023-01-08T11:05:38.332Z,102039.79
2023-01-08T11:08:07.388Z,102031.33
2023-01-08T11:10:37.474Z,102032.52
2023-01-08T11:13:07.296Z,102036.48
2023-01-08T11:15:39.170Z,102034.63
2023-01-08T11:18:08.152Z,102034.08
2023-01-08T11:20:35.289Z,102038.67
2023-01-08T11:23:26.914Z,102033.77
2023-01-08T11:26:16.813Z,102032.69
2023-01-08T11:29:00.584Z,102035.77
2023-01-08T11:31:37.507Z,102031.81
2023-01-08T11:34:08.269Z,102028.73
2023-01-08T11:36:36.812Z,102029.91
2023-01-08T11:39:03.762Z,102026.30
2023-01-08T11:41:52.931Z,102025.98
2023-01-08T11:44:24.411Z,102024.44
2023-01-08T11:47:14.766Z,102024.95
2023-01-08T11:49:44.871Z,102026.83
2023-01-08T11:52:24.162Z,102026.00
2023-01-08T11:55:16.817Z,102025.33
2023-01-08T11:58:23.369Z,102020.95
2023-01-08T12:01:12.625Z,102026.07
2023-01-08T14:39:32.223Z,101937.19
2023-01-08T14:42:20.712Z,101927.59
2023-01-08T14:44:56.914Z,101928.23
2023-01-08T14:47:23.920Z,101929.04
2023-01-08T14:49:52.499Z,101924.02
2023-01-08T14:52:20.896Z,101929.59
2023-01-08T15:07:23.399Z,101923.75
2023-01-08T15:09:58.058Z,101924.03
2023-01-08T15:12:26.945Z,101923.89
2023-01-08T15:14:55.421Z,101924.75
2023-01-08T15:17:26.327Z,101927.67
2023-01-08T15:19:57.271Z,101923.58
2023-01-08T15:22:28.539Z,101929.56
2023-01-08T15:25:03.022Z,101932.84
2023-01-08T15:27:31.698Z,101933.35
2023-01-08T15:30:03.802Z,101931.83
2023-01-08T15:32:32.714Z,101934.07
2023-01-08T15:34:59.740Z,101936.83
2023-01-08T15:37:27.269Z,101937.02
2023-01-08T15:39:54.268Z,101934.80
2023-01-08T15:42:47.234Z,101934.85
2023-01-08T15:45:18.676Z,101933.33
2023-01-08T15:47:45.704Z,101928.84
2023-01-08T15:50:12.877Z,101929.71
2023-01-08T15:52:40.999Z,101929.41
2023-01-08T15:55:10.111Z,101930.30
2023-01-08T15:57:38.617Z,101924.67
2023-01-08T16:00:08.385Z,101932.40
2023-01-08T16:02:48.183Z,101938.41
2023-01-08T16:05:17.735Z,101936.00
2023-01-08T16:07:47.743Z,101931.39
2023-01-08T16:10:15.632Z,101930.75
2023-01-08T16:12:43.840Z,101925.53
2023-01-08T16:15:11.945Z,101925.98
2023-01-08T16:17:39.033Z,101926.67
2023-01-08T16:20:06.794Z,101925.79
2023-01-08T16:22:33.785Z,101922.13
2023-01-08T16:25:00.898Z,101923.73
2023-01-08T16:27:27.960Z,101924.65
2023-01-08T16:29:55.061Z,101930.35
2023-01-08T16:32:22.029Z,101928.16
2023-01-08T16:34:49.080Z,101923.41
2023-01-08T16:37:16.020Z,101929.58
2023-01-08T16:39:43.015Z,101934.70
2023-01-08T16:42:12.093Z,101940.20
2023-01-08T16:44:39.096Z,101937.66
2023-01-08T16:47:06.199Z,101942.86
2023-01-08T16:49:33.835Z,101942.23
2023-01-08T16:52:00.870Z,101941.56
2023-01-08T16:54:27.997Z,101947.70
2023-01-08T16:56:55.200Z,101947.83
2023-01-08T16:59:23.877Z,101943.66
2023-01-08T17:01:52.397Z,101936.47
2023-01-08T17:04:19.932Z,101935.48
2023-01-08T17:06:47.164Z,101927.98
2023-01-08T17:09:15.136Z,101930.88
2023-01-08T17:11:42.486Z,101931.90
2023-01-08T17:14:09.676Z,101932.94
2023-01-08T17:16:36.798Z,101941.45
2023-01-08T17:19:03.990Z,101940.95
2023-01-08T17:21:31.038Z,101942.80
2023-01-08T17:23:58.092Z,101942.95
2023-01-08T17:26:25.231Z,101941.06
2023-01-08T17:28:52.275Z,101943.29
2023-01-08T17:31:19.524Z,101938.33
2023-01-08T17:33:50.633Z,101937.37
2023-01-08T17:36:20.547Z,101935.20
2023-01-08T17:38:47.542Z,101935.48
2023-01-08T17:41:34.481Z,101942.16
2023-01-08T17:44:01.761Z,101940.06
2023-01-08T17:46:28.784Z,101943.79
2023-01-08T17:48:55.754Z,101946.78
2023-01-08T17:51:22.846Z,101945.15
2023-01-08T17:53:49.999Z,101945.08
2023-01-08T17:56:17.088Z,101945.48
2023-01-08T17:58:44.126Z,101943.79
2023-01-08T18:01:14.719Z,101940.59
2023-01-08T18:03:41.966Z,101942.16
2023-01-08T18:06:10.357Z,101942.19
2023-01-08T18:08:38.231Z,101942.59
2023-01-08T18:11:05.863Z,101944.53
2023-01-08T18:13:33.097Z,101944.39
2023-01-08T18:16:11.121Z,101942.67
2023-01-08T18:18:38.723Z,101944.34
2023-01-08T18:21:06.224Z,101948.21
2023-01-08T18:23:33.272Z,101947.85
2023-01-08T18:26:05.260Z,101943.20
2023-01-08T18:28:32.289Z,101943.25
2023-01-08T18:30:59.346Z,101938.29
2023-01-08T18:33:26.368Z,101939.33
2023-01-08T18:35:53.610Z,101939.19
2023-01-08T18:38:20.794Z,101933.71
2023-01-08T18:40:48.649Z,101934.40
2023-01-08T18:43:15.643Z,101932.70
2023-01-08T18:45:42.729Z,101924.15
2023-01-08T18:48:09.928Z,101918.80
2023-01-08T18:50:40.605Z,101921.52
2023-01-08T18:53:08.887Z,101919.10
2023-01-08T18:55:37.414Z,101925.06
2023-01-08T18:58:04.895Z,101925.75
2023-01-08T19:00:32.112Z,101925.02
2023-01-08T19:02:59.146Z,101924.15
2023-01-08T19:05:26.228Z,101923.77
2023-01-08T19:07:53.317Z,101922.56
2023-01-08T19:10:21.933Z,101919.77
2023-01-08T19:12:50.905Z,101913.96
2023-01-08T19:15:17.980Z,101914.68
2023-01-08T19:17:44.966Z,101914.52
2023-01-08T19:20:12.104Z,101916.74
2023-01-08T19:22:39.139Z,101914.84
2023-01-08T19:25:06.551Z,101916.52
2023-01-08T19:27:35.264Z,101913.94
2023-01-08T19:30:03.585Z,101913.71
2023-01-08T19:32:30.589Z,101914.84
2023-01-08T19:34:57.598Z,101915.17
2023-01-08T22:23:26.235Z,101822.13
2023-01-08T22:25:53.185Z,101814.46
2023-01-08T22:28:20.203Z,101809.38
2023-01-08T22:30:47.164Z,101805.73
2023-01-08T22:33:14.259Z,101805.16
2023-01-08T22:35:41.177Z,101806.55
2023-01-08T22:38:08.223Z,101798.52
2023-01-08T22:40:35.228Z,101793.71
2023-01-08T22:43:02.296Z,101790.38
2023-01-08T22:45:29.346Z,101788.00
2023-01-08T22:47:56.559Z,101780.32
2023-01-08T22:50:23.549Z,101779.30
2023-01-08T22:52:50.510Z,101781.02
2023-01-08T22:55:18.163Z,101785.99
2023-01-08T22:57:45.196Z,101788.08
2023-01-08T23:00:12.904Z,101790.20
2023-01-08T23:02:39.877Z,101785.68
2023-01-08T23:05:07.227Z,101782.02
2023-01-08T23:07:34.249Z,101776.55
2023-01-08T23:10:01.306Z,101773.75
2023-01-08T23:12:28.338Z,101770.94
2023-01-08T23:14:55.413Z,101763.69
2023-01-08T23:17:22.452Z,101764.81
2023-01-08T23:19:49.413Z,101764.76
2023-01-08T23:22:16.436Z,101763.85
2023-01-08T23:24:43.388Z,101761.88
2023-01-08T23:27:10.349Z,101762.81
2023-01-08T23:29:37.337Z,101760.88
2023-01-08T23:32:04.572Z,101755.98
2023-01-08T23:34:31.575Z,101752.95
2023-01-08T23:36:58.597Z,101751.44
2023-01-08T23:39:28.387Z,101747.18
2023-01-08T23:41:56.400Z,101747.23
2023-01-08T23:44:23.481Z,101740.64
2023-01-08T23:46:50.441Z,101735.96
2023-01-08T23:49:17.451Z,101732.35
2023-01-08T23:51:44.459Z,101731.84
2023-01-08T23:54:11.535Z,101731.20
2023-01-08T23:56:39.062Z,101726.05
2023-01-08T23:59:06.218Z,101721.75
